createdAt,value
2023-04-25T00:02:14.594Z,13.55
2023-04-25T00:04:43.200Z,13.46
2023-04-25T00:07:11.860Z,13.40
2023-04-25T00:09:39.928Z,13.36
2023-04-25T00:12:08.000Z,13.32
2023-04-25T00:14:36.680Z,13.30
2023-04-25T00:17:05.513Z,13.29
2023-04-25T00:19:33.686Z,13.26
2023-04-25T00:22:01.743Z,13.25
2023-04-25T00:24:29.683Z,13.26
2023-04-25T00:26:57.757Z,13.28
2023-04-25T00:29:25.826Z,13.30
2023-04-25T00:31:54.088Z,13.30
2023-04-25T00:34:22.171Z,13.32
2023-04-25T00:36:50.139Z,13.34
2023-04-25T00:39:18.158Z,13.34
2023-04-25T00:41:46.577Z,13.37
2023-04-25T00:44:18.106Z,13.37
2023-04-25T00:46:48.362Z,13.39
2023-04-25T00:49:17.994Z,13.40
2023-04-25T00:51:45.964Z,13.41
2023-04-25T00:54:14.724Z,13.42
2023-04-25T00:56:43.110Z,13.42
2023-04-25T00:59:11.508Z,13.42
2023-04-25T01:01:41.289Z,13.41
2023-04-25T01:04:09.598Z,13.42
2023-04-25T01:06:37.943Z,13.43
2023-04-25T01:09:07.190Z,13.43
2023-04-25T01:11:35.311Z,13.43
2023-04-25T01:14:03.394Z,13.44
2023-04-25T01:16:32.639Z,13.43
2023-04-25T01:19:01.181Z,13.41
2023-04-25T01:21:30.917Z,13.40
2023-04-25T01:23:59.354Z,13.38
2023-04-25T01:26:27.949Z,13.36
2023-04-25T01:28:56.415Z,13.34
2023-04-25T01:31:24.944Z,13.32
2023-04-25T01:33:53.594Z,13.28
2023-04-25T01:36:23.130Z,13.22
2023-04-25T01:38:51.558Z,13.17
2023-04-25T01:41:20.024Z,13.17
2023-04-25T01:43:48.754Z,13.19
2023-04-25T01:46:18.055Z,13.20
2023-04-25T01:48:46.760Z,13.23
2023-04-25T01:51:14.982Z,13.23
2023-04-25T01:53:44.236Z,13.24
2023-04-25T01:56:12.666Z,13.26
2023-04-25T01:58:41.248Z,13.24
2023-04-25T02:01:29.494Z,13.19
2023-04-25T02:04:08.039Z,13.17
2023-04-25T02:06:38.224Z,13.17
2023-04-25T02:09:06.219Z,13.18
2023-04-25T02:11:34.266Z,13.18
2023-04-25T02:14:21.096Z,13.16
2023-04-25T02:16:55.932Z,13.18
2023-04-25T02:19:24.726Z,13.18
2023-04-25T02:21:52.765Z,13.20
2023-04-25T02:24:20.826Z,13.21
2023-04-25T02:26:50.382Z,13.21
2023-04-25T02:29:18.570Z,13.22
2023-04-25T02:31:46.632Z,13.24
2023-04-25T02:34:14.627Z,13.26
2023-04-25T02:36:42.617Z,13.27
2023-04-25T02:39:11.447Z,13.28
2023-04-25T02:41:39.404Z,13.30
2023-04-25T02:44:07.433Z,13.31
2023-04-25T02:46:39.478Z,13.32
2023-04-25T02:49:08.400Z,13.31
2023-04-25T02:51:36.860Z,13.33
2023-04-25T02:54:05.067Z,13.33
2023-04-25T02:56:35.987Z,13.33
2023-04-25T02:59:04.421Z,13.32
2023-04-25T03:01:32.900Z,13.31
2023-04-25T03:04:00.945Z,13.31
2023-04-25T03:06:29.061Z,13.30
2023-04-25T03:08:57.060Z,13.29
2023-04-25T03:11:26.618Z,13.28
2023-04-25T03:13:54.859Z,13.27
2023-04-25T03:16:23.547Z,13.28
2023-04-25T03:18:51.966Z,13.28
2023-04-25T03:21:20.080Z,13.30
2023-04-25T03:23:48.167Z,13.31
2023-04-25T03:26:16.506Z,13.31
2023-04-25T03:28:44.906Z,13.32
2023-04-25T03:31:14.201Z,13.31
2023-04-25T03:33:42.275Z,13.30
2023-04-25T03:36:10.846Z,13.27
2023-04-25T03:38:39.339Z,13.25
2023-04-25T03:41:07.833Z,13.24
2023-04-25T03:43:42.031Z,13.19
2023-04-25T03:46:12.764Z,13.15
2023-04-25T03:48:41.250Z,13.13
2023-04-25T03:51:10.219Z,13.13
2023-04-25T03:53:40.082Z,13.13
2023-04-25T03:56:17.038Z,13.13
2023-04-25T03:58:46.407Z,13.12
2023-04-25T04:01:15.508Z,13.11
2023-04-25T04:03:43.787Z,13.09
2023-04-25T04:06:12.073Z,13.09
2023-04-25T04:08:44.892Z,13.08
2023-04-25T04:11:13.349Z,13.07
2023-04-25T04:13:41.405Z,13.08
2023-04-25T04:16:09.759Z,13.10
2023-04-25T04:18:38.084Z,13.11
2023-04-25T04:21:06.292Z,13.12
2023-04-25T04:23:39.495Z,13.10
2023-04-25T04:26:09.652Z,13.10
2023-04-25T04:29:01.469Z,13.06
2023-04-25T04:31:39.845Z,13.05
2023-04-25T04:34:07.859Z,13.06
2023-04-25T04:36:36.750Z,13.06
2023-04-25T04:39:07.530Z,13.07
2023-04-25T04:41:44.656Z,13.06
2023-04-25T04:44:16.739Z,13.07
2023-04-25T04:47:07.648Z,13.04
2023-04-25T04:49:50.438Z,13.01
2023-04-25T04:52:39.736Z,12.99
2023-04-25T04:55:33.778Z,12.98
2023-04-25T04:58:09.876Z,13.00
2023-04-25T05:00:50.044Z,13.01
2023-04-25T05:03:37.072Z,13.01
2023-04-25T05:06:28.392Z,13.01
2023-04-25T05:09:17.191Z,12.99
2023-04-25T05:12:17.642Z,12.98
2023-04-25T05:14:54.908Z,13.03
2023-04-25T05:17:32.012Z,13.06
2023-04-25T05:20:20.146Z,13.07
2023-04-25T05:23:16.677Z,13.07
2023-04-25T05:26:15.211Z,13.06
2023-04-25T05:29:06.784Z,13.07
2023-04-25T05:32:04.040Z,13.07
2023-04-25T05:34:32.237Z,13.10
2023-04-25T05:37:07.551Z,13.12
2023-04-25T05:39:41.147Z,13.14
2023-04-25T05:42:15.153Z,13.15
2023-04-25T05:45:01.971Z,13.15
2023-04-25T05:48:02.278Z,13.12
2023-04-25T05:50:49.002Z,13.10
2023-04-25T05:53:39.262Z,13.07
2023-04-25T05:56:07.983Z,13.08
2023-04-25T05:58:36.148Z,13.10
2023-04-25T06:01:04.641Z,13.11
2023-04-25T06:03:32.883Z,13.11
2023-04-25T06:06:01.296Z,13.11
2023-04-25T06:08:29.436Z,13.10
2023-04-25T06:10:57.402Z,13.07
2023-04-25T06:13:25.507Z,12.99
2023-04-25T06:15:54.111Z,12.83
2023-04-25T06:18:22.513Z,12.66
2023-04-25T06:20:51.132Z,12.47
2023-04-25T06:23:19.619Z,12.34
2023-04-25T06:25:52.720Z,12.19
2023-04-25T06:28:23.108Z,12.07
2023-04-25T06:30:52.197Z,11.94
2023-04-25T06:33:22.574Z,11.77
2023-04-25T06:35:50.868Z,11.64
2023-04-25T06:38:21.446Z,11.55
2023-04-25T06:40:52.566Z,11.49
2023-04-25T06:43:20.977Z,11.45
2023-04-25T06:46:01.381Z,11.42
2023-04-25T06:48:30.661Z,11.40
2023-04-25T06:51:00.131Z,11.36
2023-04-25T06:53:28.403Z,11.30
2023-04-25T06:56:00.075Z,11.22
2023-04-25T06:58:36.020Z,11.14
2023-04-25T07:01:17.262Z,11.11
2023-04-25T07:03:45.653Z,11.09
2023-04-25T07:06:17.239Z,11.06
2023-04-25T07:08:45.291Z,11.05
2023-04-25T07:11:14.227Z,11.01
2023-04-25T07:13:42.373Z,11.00
2023-04-25T07:16:10.559Z,11.00
2023-04-25T07:18:38.713Z,10.98
2023-04-25T07:21:06.898Z,10.94
2023-04-25T07:23:35.158Z,10.96
2023-04-25T07:26:07.027Z,10.98
2023-04-25T07:28:35.460Z,10.98
2023-04-25T07:31:04.016Z,10.96
2023-04-25T07:33:34.721Z,10.93
2023-04-25T07:36:02.989Z,10.92
2023-04-25T07:38:31.193Z,10.93
2023-04-25T07:40:59.408Z,10.94
2023-04-25T07:43:27.506Z,10.94
2023-04-25T07:45:59.218Z,10.93
2023-04-25T07:48:28.653Z,10.89
2023-04-25T07:50:58.021Z,10.84
2023-04-25T07:53:24.954Z,10.83
2023-04-25T07:55:56.384Z,10.79
2023-04-25T07:58:24.527Z,10.76
2023-04-25T08:00:55.981Z,10.76
2023-04-25T08:03:44.385Z,10.75
2023-04-25T08:06:20.256Z,10.75
2023-04-25T08:09:05.142Z,10.73
2023-04-25T08:11:39.391Z,10.71
2023-04-25T08:14:08.047Z,10.74
2023-04-25T08:16:36.422Z,10.77
2023-04-25T08:19:04.639Z,10.78
2023-04-25T08:21:33.934Z,10.76
2023-04-25T08:24:04.485Z,10.75
2023-04-25T08:26:35.671Z,10.77
2023-04-25T08:29:03.949Z,10.77
2023-04-25T08:31:32.166Z,10.79
2023-04-25T08:34:02.038Z,10.81
2023-04-25T08:36:53.535Z,10.80
2023-04-25T08:39:43.326Z,10.79
2023-04-25T08:42:24.343Z,10.78
2023-04-25T08:44:55.151Z,10.79
2023-04-25T08:47:24.917Z,10.82
2023-04-25T08:49:57.378Z,10.84
2023-04-25T08:52:31.906Z,10.87
2023-04-25T08:55:03.910Z,10.90
2023-04-25T08:57:32.890Z,10.89
2023-04-25T09:00:02.918Z,10.91
2023-04-25T09:02:31.522Z,10.93
2023-04-25T09:05:00.801Z,10.96
2023-04-25T09:07:31.347Z,10.98
2023-04-25T09:10:02.923Z,10.98
2023-04-25T09:12:31.878Z,10.97
2023-04-25T09:15:20.466Z,10.94
2023-04-25T09:18:05.938Z,10.87
2023-04-25T09:23:16.050Z,10.91
2023-04-25T09:25:44.540Z,10.92
2023-04-25T09:28:12.514Z,10.95
2023-04-25T09:30:40.709Z,10.98
2023-04-25T09:33:31.178Z,11.01
2023-04-25T09:36:08.438Z,11.05
2023-04-25T09:39:00.884Z,11.04
2023-04-25T09:41:31.362Z,11.08
2023-04-25T09:44:03.339Z,11.12
2023-04-25T09:46:40.286Z,11.15
2023-04-25T09:49:16.383Z,11.16
2023-04-25T09:51:59.865Z,11.14
2023-04-25T09:54:31.646Z,11.15
2023-04-25T09:57:26.147Z,11.13
2023-04-25T09:59:57.073Z,11.14
2023-04-25T10:02:27.901Z,11.15
2023-04-25T10:05:01.282Z,11.15
2023-04-25T10:07:34.274Z,11.17
2023-04-25T10:10:05.036Z,11.18
2023-04-25T10:12:34.926Z,11.18
2023-04-25T10:15:05.522Z,11.18
2023-04-25T10:17:35.146Z,11.19
2023-04-25T10:20:05.992Z,11.22
2023-04-25T10:22:37.223Z,11.25
2023-04-25T10:25:07.222Z,11.28
2023-04-25T10:27:35.997Z,11.31
2023-04-25T10:30:07.569Z,11.31
2023-04-25T10:32:36.972Z,11.31
2023-04-25T10:35:12.897Z,11.33
2023-04-25T10:37:57.892Z,11.35
2023-04-25T10:40:26.386Z,11.37
2023-04-25T10:42:57.797Z,11.40
2023-04-25T10:45:26.971Z,11.40
2023-04-25T10:47:55.764Z,11.43
2023-04-25T10:50:39.460Z,11.47
2023-04-25T10:53:16.743Z,11.47
2023-04-25T10:55:52.690Z,11.50
2023-04-25T10:58:23.830Z,11.51
2023-04-25T11:00:57.565Z,11.56
2023-04-25T11:03:26.241Z,11.57
2023-04-25T11:05:58.546Z,11.61
2023-04-25T11:08:51.141Z,11.63
2023-04-25T11:11:20.100Z,11.70
2023-04-25T11:13:51.618Z,11.75
2023-04-25T11:19:07.470Z,11.83
2023-04-25T11:21:35.538Z,11.87
2023-04-25T11:24:03.818Z,11.91
2023-04-25T11:26:32.024Z,11.97
2023-04-25T11:29:01.682Z,12.02
2023-04-25T11:31:30.952Z,12.06
2023-04-25T11:33:59.193Z,12.10
2023-04-25T11:36:28.051Z,12.15
2023-04-25T11:38:56.149Z,12.17
2023-04-25T11:41:24.738Z,12.17
2023-04-25T11:43:55.542Z,12.19
2023-04-25T11:46:23.991Z,12.22
2023-04-25T11:48:52.394Z,12.25
2023-04-25T11:51:21.316Z,12.30
2023-04-25T11:53:49.999Z,12.30
2023-04-25T11:56:18.175Z,12.29
2023-04-25T11:58:56.762Z,12.30
2023-04-25T12:01:40.840Z,12.32
2023-04-25T12:04:24.893Z,12.34
2023-04-25T12:06:55.340Z,12.34
2023-04-25T12:09:32.025Z,12.35
2023-04-25T12:12:05.128Z,12.36
2023-04-25T12:14:35.132Z,12.35
2023-04-25T12:17:05.386Z,12.34
2023-04-25T12:19:36.253Z,12.34
2023-04-25T12:22:20.862Z,12.34
2023-04-25T12:24:48.977Z,12.33
2023-04-25T12:27:20.234Z,12.29
2023-04-25T12:29:53.425Z,12.27
2023-04-25T12:32:21.994Z,12.23
2023-04-25T12:34:49.956Z,12.20
2023-04-25T12:37:18.014Z,12.17
2023-04-25T12:39:46.516Z,12.18
2023-04-25T12:42:14.609Z,12.18
2023-04-25T12:44:42.862Z,12.15
2023-04-25T12:47:11.671Z,12.11
2023-04-25T12:49:39.738Z,12.11
2023-04-25T12:52:07.681Z,12.09
2023-04-25T12:54:36.498Z,12.07
2023-04-25T12:57:04.550Z,12.07
2023-04-25T12:59:33.309Z,12.07
2023-04-25T13:02:01.403Z,12.11
2023-04-25T13:04:29.839Z,12.13
2023-04-25T13:06:58.257Z,12.16
2023-04-25T13:09:26.359Z,12.20
2023-04-25T13:11:56.283Z,12.23
2023-04-25T13:14:26.349Z,12.21
2023-04-25T13:16:55.406Z,12.19
2023-04-25T13:19:23.682Z,12.17
2023-04-25T13:21:52.060Z,12.18
2023-04-25T13:24:20.086Z,12.20
2023-04-25T13:26:48.096Z,12.16
2023-04-25T13:29:16.259Z,12.11
2023-04-25T13:31:44.332Z,12.04
2023-04-25T13:34:13.694Z,11.96
2023-04-25T13:36:41.914Z,11.92
2023-04-25T13:39:09.998Z,11.88
2023-04-25T13:41:38.315Z,11.80
2023-04-25T13:44:06.350Z,11.69
2023-04-25T13:46:46.392Z,11.58
2023-04-25T13:49:15.750Z,11.51
2023-04-25T13:51:43.946Z,11.46
2023-04-25T13:54:12.089Z,11.38
2023-04-25T13:56:43.257Z,11.32
2023-04-25T13:59:11.957Z,11.25
2023-04-25T14:01:40.227Z,11.15
2023-04-25T14:04:09.669Z,11.06
2023-04-25T14:06:37.883Z,10.98
2023-04-25T14:09:08.026Z,10.92
2023-04-25T14:11:36.383Z,10.86
2023-04-25T14:14:05.021Z,10.80
2023-04-25T14:16:33.185Z,10.74
2023-04-25T14:19:01.473Z,10.70
2023-04-25T14:21:30.291Z,10.68
2023-04-25T14:23:58.311Z,10.64
2023-04-25T14:26:26.576Z,10.58
2023-04-25T14:28:54.544Z,10.51
2023-04-25T14:31:22.926Z,10.49
2023-04-25T14:33:51.794Z,10.47
2023-04-25T14:36:20.255Z,10.46
2023-04-25T14:38:48.320Z,10.43
2023-04-25T14:41:16.686Z,10.39
2023-04-25T14:43:46.097Z,10.36
2023-04-25T14:46:14.271Z,10.35
2023-04-25T14:48:43.911Z,10.33
2023-04-25T14:51:12.227Z,10.31
2023-04-25T14:53:42.043Z,10.28
2023-04-25T14:56:10.116Z,10.24
2023-04-25T14:58:39.973Z,10.21
2023-04-25T15:01:09.221Z,10.23
2023-04-25T15:03:37.993Z,10.25
2023-04-25T15:06:07.336Z,10.30
2023-04-25T15:08:35.806Z,10.39
2023-04-25T15:11:04.222Z,10.47
2023-04-25T15:13:32.341Z,10.51
2023-04-25T15:16:00.503Z,10.56
2023-04-25T15:18:28.529Z,10.60
2023-04-25T15:20:56.531Z,10.67
2023-04-25T15:23:25.998Z,10.67
2023-04-25T15:25:55.981Z,10.69
2023-04-25T15:28:23.947Z,10.72
2023-04-25T15:30:51.942Z,10.74
2023-04-25T15:33:19.905Z,10.75
2023-04-25T15:35:47.922Z,10.74
2023-04-25T15:38:16.008Z,10.74
2023-04-25T15:40:44.194Z,10.66
2023-04-25T15:43:16.161Z,10.62
2023-04-25T15:45:45.748Z,10.60
2023-04-25T15:48:14.038Z,10.60
2023-04-25T15:50:42.464Z,10.56
2023-04-25T15:53:10.698Z,10.47
2023-04-25T15:55:39.168Z,10.42
2023-04-25T15:58:07.342Z,10.39
2023-04-25T16:00:36.407Z,10.35
2023-04-25T16:03:05.278Z,10.33
2023-04-25T16:05:33.432Z,10.33
2023-04-25T16:08:01.394Z,10.35
2023-04-25T16:10:29.331Z,10.34
2023-04-25T16:12:57.314Z,10.34
2023-04-25T16:15:25.479Z,10.34
2023-04-25T16:17:53.496Z,10.33
2023-04-25T16:20:22.840Z,10.30
2023-04-25T16:22:50.872Z,10.29
2023-04-25T16:25:18.883Z,10.29
2023-04-25T16:27:46.908Z,10.28
2023-04-25T16:30:15.567Z,10.26
2023-04-25T16:32:45.383Z,10.24
2023-04-25T16:35:13.921Z,10.22
2023-04-25T16:37:41.925Z,10.22
2023-04-25T16:40:10.807Z,10.18
2023-04-25T16:42:38.774Z,10.13
2023-04-25T16:45:07.141Z,10.10
2023-04-25T16:47:35.131Z,10.07
2023-04-25T16:50:03.355Z,10.03
2023-04-25T16:52:31.763Z,9.99
2023-04-25T16:54:59.818Z,9.94
2023-04-25T16:57:27.914Z,9.90
2023-04-25T16:59:56.754Z,9.88
2023-04-25T17:02:24.889Z,9.86
2023-04-25T17:04:53.058Z,9.78
2023-04-25T17:07:24.608Z,9.75
2023-04-25T17:09:52.675Z,9.71
2023-04-25T17:12:22.868Z,9.67
2023-04-25T17:14:50.821Z,9.65
2023-04-25T17:17:19.068Z,9.59
2023-04-25T17:19:47.457Z,9.49
2023-04-25T17:22:15.845Z,9.40
2023-04-25T17:24:44.181Z,9.34
2023-04-25T17:27:12.114Z,9.30
2023-04-25T17:29:40.091Z,9.27
2023-04-25T17:32:08.214Z,9.28
2023-04-25T17:34:37.951Z,9.29
2023-04-25T17:37:06.391Z,9.31
2023-04-25T17:39:34.461Z,9.32
2023-04-25T17:42:02.783Z,9.30
2023-04-25T17:44:30.706Z,9.31
2023-04-25T17:46:58.984Z,9.33
2023-04-25T17:49:27.013Z,9.35
2023-04-25T17:51:55.442Z,9.35
2023-04-25T17:54:23.658Z,9.37
2023-04-25T17:56:51.724Z,9.38
2023-04-25T17:59:20.101Z,9.41
2023-04-25T18:01:48.727Z,9.42
2023-04-25T18:04:17.776Z,9.45
2023-04-25T18:06:45.780Z,9.46
2023-04-25T18:09:17.505Z,9.46
2023-04-25T18:11:46.725Z,9.46
2023-04-25T18:14:16.003Z,9.47
2023-04-25T18:16:45.085Z,9.48
2023-04-25T18:19:15.970Z,9.49
2023-04-25T18:21:45.468Z,9.49
2023-04-25T18:24:14.013Z,9.49
2023-04-25T18:26:42.297Z,9.47
2023-04-25T18:29:16.339Z,9.45
2023-04-25T18:31:50.358Z,9.45
2023-04-25T18:34:20.657Z,9.46
2023-04-25T18:36:48.661Z,9.48
2023-04-25T18:39:22.590Z,9.50
2023-04-25T18:41:58.123Z,9.52
2023-04-25T18:44:29.215Z,9.53
2023-04-25T18:46:57.170Z,9.54
2023-04-25T18:49:25.121Z,9.55
2023-04-25T18:51:56.280Z,9.57
2023-04-25T18:54:24.353Z,9.57
2023-04-25T18:56:52.636Z,9.59
2023-04-25T18:59:21.105Z,9.60
2023-04-25T19:01:51.129Z,9.59
2023-04-25T19:04:19.381Z,9.58
2023-04-25T19:06:49.986Z,9.57
2023-04-25T19:09:18.504Z,9.57
2023-04-25T19:11:46.655Z,9.56
2023-04-25T19:14:14.999Z,9.54
2023-04-25T19:16:43.094Z,9.52
2023-04-25T19:19:11.578Z,9.51
2023-04-25T19:21:39.689Z,9.51
2023-04-25T19:24:08.556Z,9.49
2023-04-25T19:26:36.645Z,9.47
2023-04-25T19:29:16.078Z,9.46
2023-04-25T19:31:45.280Z,9.44
2023-04-25T19:34:14.166Z,9.45
2023-04-25T19:36:42.741Z,9.45
2023-04-25T19:39:11.148Z,9.45
2023-04-25T19:41:39.411Z,9.45
2023-04-25T19:44:09.167Z,9.44
2023-04-25T19:46:37.533Z,9.42
2023-04-25T19:49:09.076Z,9.43
2023-04-25T19:51:37.520Z,9.43
2023-04-25T19:54:05.752Z,9.43
2023-04-25T19:56:34.070Z,9.43
2023-04-25T19:59:02.177Z,9.46
2023-04-25T20:01:30.753Z,9.47
2023-04-25T20:03:59.091Z,9.47
2023-04-25T20:06:27.467Z,9.46
2023-04-25T20:08:55.792Z,9.45
2023-04-25T20:11:24.005Z,9.45
2023-04-25T20:13:52.385Z,9.44
2023-04-25T20:16:21.965Z,9.43
2023-04-25T20:18:50.487Z,9.43
2023-04-25T20:21:19.867Z,9.44
2023-04-25T20:23:47.813Z,9.46
2023-04-25T20:26:15.932Z,9.46
2023-04-25T20:28:43.991Z,9.48
2023-04-25T20:31:12.176Z,9.47
2023-04-25T20:33:43.777Z,9.49
2023-04-25T20:36:12.107Z,9.51
2023-04-25T20:38:40.073Z,9.51
2023-04-25T20:41:08.037Z,9.52
2023-04-25T20:43:37.634Z,9.52
2023-04-25T20:46:06.416Z,9.52
2023-04-25T20:48:34.709Z,9.52
2023-04-25T20:51:04.110Z,9.54
2023-04-25T20:53:32.082Z,9.54
2023-04-25T20:56:00.146Z,9.53
2023-04-25T20:58:28.735Z,9.52
2023-04-25T21:00:56.757Z,9.52
2023-04-25T21:03:26.645Z,9.52
2023-04-25T21:05:55.071Z,9.51
2023-04-25T21:08:23.076Z,9.49
2023-04-25T21:10:53.047Z,9.48
2023-04-25T21:13:21.560Z,9.47
2023-04-25T21:15:50.048Z,9.46
2023-04-25T21:18:18.085Z,9.43
2023-04-25T21:20:46.398Z,9.42
2023-04-25T21:23:14.335Z,9.41
2023-04-25T21:25:43.150Z,9.39
2023-04-25T21:28:12.158Z,9.36
2023-04-25T21:30:41.073Z,9.34
2023-04-25T21:33:09.252Z,9.31
2023-04-25T21:35:37.577Z,9.31
2023-04-25T21:38:05.951Z,9.28
2023-04-25T21:40:35.137Z,9.26
2023-04-25T21:43:03.182Z,9.24
2023-04-25T21:45:31.497Z,9.22
2023-04-25T21:47:59.503Z,9.19
2023-04-25T21:50:28.177Z,9.17
2023-04-25T21:52:59.089Z,9.13
2023-04-25T21:55:27.734Z,9.12
2023-04-25T21:57:55.805Z,9.10
2023-04-25T22:00:27.822Z,9.09
2023-04-25T22:02:55.966Z,9.07
2023-04-25T22:05:26.642Z,9.06
2023-04-25T22:07:59.005Z,9.03
2023-04-25T22:10:27.046Z,9.01
2023-04-25T22:12:56.105Z,8.99
2023-04-25T22:15:24.219Z,8.97
2023-04-25T22:17:55.465Z,8.95
2023-04-25T22:20:26.614Z,8.94
2023-04-25T22:22:58.739Z,8.91
2023-04-25T22:25:26.836Z,8.88
2023-04-25T22:27:55.948Z,8.87
2023-04-25T22:30:24.046Z,8.85
2023-04-25T22:32:52.109Z,8.84
2023-04-25T22:35:20.244Z,8.83
2023-04-25T22:37:48.313Z,8.80
2023-04-25T22:40:16.257Z,8.76
2023-04-25T22:42:44.490Z,8.73
2023-04-25T22:45:12.738Z,8.71
2023-04-25T22:47:40.788Z,8.68
2023-04-25T22:50:13.633Z,8.66
2023-04-25T22:52:42.678Z,8.64
2023-04-25T22:55:12.558Z,8.62
2023-04-25T22:57:41.595Z,8.60
2023-04-25T23:00:20.532Z,8.58
2023-04-25T23:02:49.795Z,8.55
2023-04-25T23:05:18.715Z,8.53
2023-04-25T23:07:46.780Z,8.50
2023-04-25T23:10:14.861Z,8.49
2023-04-25T23:12:43.148Z,8.47
2023-04-25T23:15:13.219Z,8.45
2023-04-25T23:17:42.451Z,8.41
2023-04-25T23:20:11.672Z,8.37
2023-04-25T23:22:39.692Z,8.34
2023-04-25T23:25:08.796Z,8.31
2023-04-25T23:27:37.595Z,8.29
2023-04-25T23:30:06.679Z,8.29
2023-04-25T23:32:34.965Z,8.27
2023-04-25T23:35:05.003Z,8.25
2023-04-25T23:37:39.485Z,8.23
2023-04-25T23:40:12.834Z,8.20
2023-04-25T23:42:42.283Z,8.18
2023-04-25T23:45:11.081Z,8.18
2023-04-25T23:47:39.301Z,8.16
2023-04-25T23:50:08.451Z,8.15
2023-04-25T23:52:36.513Z,8.13
2023-04-25T23:55:08.320Z,8.13
2023-04-25T23:57:36.462Z,8.12
